UTA7775 USRO-UHPP
Flight info
| Callsign | UTA7775 |
|---|---|
| Flight time | N/A |
| Altitude | 31000 |
| Route | LUKIS2G LUKIS W298 TABOS W238 THN G932 PLR W19 UTS G370 OMAVI G101 SW B703 GANKA GANKA5P |
| Aircraft | A321/M-SDE3FGHIRWY/LB1 |
Departure
| Time | 2026-04-15 19:51 |
|---|---|
| Airport | Noyabrsk Airport (USRO) |
Arrival
| Time | N/A |
|---|---|
| Airport | Yelizovo Airport (UHPP) |
| Time | Latitude | Longitude | Altitude | Speed | Heading |
|---|---|---|---|---|---|
| 2026-04-15 19:13 | 63.17845 | 75.26936 | 459 ft | 0 kts | 242° |
| 2026-04-15 19:43 | 63.17851 | 75.26961 | 459 ft | 4 kts | 242° |
| 2026-04-15 19:43 | 63.17852 | 75.26966 | 455 ft | 0 kts | 242° |
| 2026-04-15 19:47 | 63.17843 | 75.26930 | 459 ft | 8 kts | 242° |
| 2026-04-15 19:47 | 63.17814 | 75.26817 | 459 ft | 9 kts | 233° |
| 2026-04-15 19:47 | 63.17797 | 75.26701 | 459 ft | 8 kts | 279° |
| 2026-04-15 19:47 | 63.17818 | 75.26585 | 459 ft | 8 kts | 295° |
| 2026-04-15 19:48 | 63.17843 | 75.26463 | 459 ft | 9 kts | 289° |
| 2026-04-15 19:48 | 63.17829 | 75.26335 | 459 ft | 9 kts | 228° |
| 2026-04-15 19:48 | 63.17762 | 75.26248 | 458 ft | 14 kts | 205° |
| 2026-04-15 19:48 | 63.17678 | 75.26161 | 461 ft | 13 kts | 205° |
| 2026-04-15 19:49 | 63.17590 | 75.26070 | 459 ft | 15 kts | 205° |
| 2026-04-15 19:49 | 63.17496 | 75.25978 | 459 ft | 15 kts | 190° |
| 2026-04-15 19:49 | 63.17399 | 75.25975 | 461 ft | 13 kts | 200° |
| 2026-04-15 19:49 | 63.17383 | 75.25876 | 460 ft | 2 kts | 348° |
| 2026-04-15 19:50 | 63.17412 | 75.25890 | 459 ft | 6 kts | 19° |
| 2026-04-15 19:50 | 63.17423 | 75.25901 | 458 ft | 0 kts | 22° |
| 2026-04-15 19:50 | 63.17624 | 75.26101 | 460 ft | 73 kts | 25° |
| 2026-04-15 19:50 | 63.18312 | 75.26803 | 459 ft | 142 kts | 24° |
| 2026-04-15 19:51 | 63.19377 | 75.27909 | 547 ft | 188 kts | 26° |
| 2026-04-15 19:51 | 63.20587 | 75.29305 | 1198 ft | 213 kts | 26° |
| 2026-04-15 19:51 | 63.21965 | 75.30834 | 1607 ft | 227 kts | 24° |
| 2026-04-15 19:51 | 63.23406 | 75.32298 | 1935 ft | 228 kts | 22° |
| 2026-04-15 19:52 | 63.24836 | 75.33728 | 2383 ft | 227 kts | 24° |
| 2026-04-15 19:52 | 63.26232 | 75.35419 | 2824 ft | 230 kts | 28° |
| 2026-04-15 19:52 | 63.27597 | 75.37292 | 3287 ft | 232 kts | 28° |
| 2026-04-15 19:52 | 63.28958 | 75.39229 | 3752 ft | 233 kts | 28° |
| 2026-04-15 19:53 | 63.30330 | 75.41197 | 4506 ft | 235 kts | 28° |
| 2026-04-15 19:53 | 63.31701 | 75.43157 | 5331 ft | 236 kts | 29° |
| 2026-04-15 19:53 | 63.33097 | 75.45144 | 6053 ft | 239 kts | 29° |
| 2026-04-15 19:53 | 63.34510 | 75.47145 | 6778 ft | 242 kts | 29° |
| 2026-04-15 19:54 | 63.35934 | 75.49160 | 7463 ft | 244 kts | 29° |
| 2026-04-15 19:54 | 63.37353 | 75.51171 | 8143 ft | 246 kts | 29° |
| 2026-04-15 19:54 | 63.38808 | 75.53234 | 8832 ft | 248 kts | 30° |
| 2026-04-15 19:54 | 63.40275 | 75.55314 | 9520 ft | 251 kts | 30° |
| 2026-04-15 19:55 | 63.41754 | 75.57411 | 10189 ft | 254 kts | 30° |
| 2026-04-15 19:55 | 63.43306 | 75.59610 | 10351 ft | 275 kts | 30° |
| 2026-04-15 19:55 | 63.44976 | 75.61979 | 10490 ft | 294 kts | 30° |
| 2026-04-15 19:55 | 63.46759 | 75.64513 | 10627 ft | 312 kts | 30° |
| 2026-04-15 19:56 | 63.48592 | 75.67288 | 10968 ft | 324 kts | 38° |
| 2026-04-15 19:56 | 63.50088 | 75.71131 | 11527 ft | 333 kts | 54° |
| 2026-04-15 19:56 | 63.51007 | 75.75970 | 12092 ft | 344 kts | 72° |
| 2026-04-15 19:56 | 63.51217 | 75.81385 | 12664 ft | 357 kts | 90° |
| 2026-04-15 19:57 | 63.50605 | 75.86856 | 13172 ft | 371 kts | 110° |
| 2026-04-15 19:57 | 63.49127 | 75.91706 | 13702 ft | 386 kts | 131° |
| 2026-04-15 19:57 | 63.47035 | 75.95570 | 14204 ft | 393 kts | 139° |
| 2026-04-15 19:57 | 63.44946 | 75.99508 | 14668 ft | 392 kts | 128° |
| 2026-04-15 19:58 | 63.43407 | 76.04465 | 15132 ft | 386 kts | 110° |
| 2026-04-15 19:58 | 63.42616 | 76.10102 | 15623 ft | 378 kts | 92° |
| 2026-04-15 19:58 | 63.42566 | 76.15893 | 16172 ft | 372 kts | 81° |
| 2026-04-15 19:58 | 63.42716 | 76.21678 | 16698 ft | 375 kts | 81° |
| 2026-04-15 19:59 | 63.42856 | 76.27517 | 17248 ft | 378 kts | 81° |
| 2026-04-15 19:59 | 63.42991 | 76.33402 | 17763 ft | 381 kts | 81° |
| 2026-04-15 19:59 | 63.43121 | 76.39337 | 18284 ft | 384 kts | 81° |
| 2026-04-15 19:59 | 63.43248 | 76.45318 | 18750 ft | 387 kts | 81° |
| 2026-04-15 20:00 | 63.43371 | 76.51347 | 19192 ft | 390 kts | 81° |
| 2026-04-15 20:00 | 63.43497 | 76.57420 | 19621 ft | 393 kts | 81° |
| 2026-04-15 20:00 | 63.43623 | 76.63534 | 20047 ft | 396 kts | 81° |
| 2026-04-15 20:00 | 63.43746 | 76.69617 | 20458 ft | 398 kts | 81° |
| 2026-04-15 20:01 | 63.43871 | 76.75900 | 20866 ft | 401 kts | 81° |
| 2026-04-15 20:01 | 63.43988 | 76.82057 | 21255 ft | 404 kts | 82° |
| 2026-04-15 20:01 | 63.44103 | 76.88368 | 21628 ft | 408 kts | 82° |
| 2026-04-15 20:01 | 63.44216 | 76.94728 | 22051 ft | 411 kts | 82° |
| 2026-04-15 20:02 | 63.44329 | 77.01124 | 22414 ft | 414 kts | 82° |
| 2026-04-15 20:02 | 63.44439 | 77.07565 | 22784 ft | 416 kts | 82° |
| 2026-04-15 20:02 | 63.44544 | 77.14043 | 23145 ft | 419 kts | 82° |
| 2026-04-15 20:02 | 63.44651 | 77.20579 | 23507 ft | 421 kts | 81° |
| 2026-04-15 20:03 | 63.44989 | 77.27046 | 23826 ft | 418 kts | 73° |
| 2026-04-15 20:03 | 63.45711 | 77.33313 | 24104 ft | 416 kts | 68° |
| 2026-04-15 20:03 | 63.46530 | 77.39532 | 24379 ft | 419 kts | 68° |
| 2026-04-15 20:03 | 63.47347 | 77.45801 | 24662 ft | 421 kts | 68° |
| 2026-04-15 20:04 | 63.48162 | 77.52114 | 24938 ft | 423 kts | 68° |
| 2026-04-15 20:04 | 63.48978 | 77.58452 | 25229 ft | 426 kts | 68° |
| 2026-04-15 20:04 | 63.49793 | 77.64845 | 25510 ft | 428 kts | 68° |
| 2026-04-15 20:04 | 63.50607 | 77.71280 | 25753 ft | 431 kts | 69° |
| 2026-04-15 20:05 | 63.51425 | 77.77750 | 26012 ft | 433 kts | 69° |
| 2026-04-15 20:05 | 63.52247 | 77.84269 | 26258 ft | 436 kts | 69° |
| 2026-04-15 20:05 | 63.53069 | 77.90813 | 26507 ft | 438 kts | 69° |
| 2026-04-15 20:05 | 63.53893 | 77.97401 | 26727 ft | 440 kts | 69° |
| 2026-04-15 20:06 | 63.54718 | 78.04029 | 26964 ft | 442 kts | 69° |
| 2026-04-15 20:06 | 63.55544 | 78.10695 | 27200 ft | 444 kts | 69° |
| 2026-04-15 20:06 | 63.56371 | 78.17391 | 27459 ft | 446 kts | 69° |
| 2026-04-15 20:06 | 63.57196 | 78.24107 | 27730 ft | 447 kts | 69° |
| 2026-04-15 20:07 | 63.58020 | 78.30855 | 27983 ft | 449 kts | 69° |
| 2026-04-15 20:07 | 63.58844 | 78.37623 | 28332 ft | 449 kts | 69° |
| 2026-04-15 20:07 | 63.59666 | 78.44383 | 28697 ft | 449 kts | 70° |
| 2026-04-15 20:07 | 63.60479 | 78.51060 | 28995 ft | 449 kts | 70° |
| 2026-04-15 20:08 | 63.61295 | 78.57842 | 29296 ft | 450 kts | 70° |
| 2026-04-15 20:08 | 63.62106 | 78.64644 | 29600 ft | 450 kts | 70° |
| 2026-04-15 20:08 | 63.62916 | 78.71453 | 29904 ft | 450 kts | 70° |
| 2026-04-15 20:08 | 63.63722 | 78.78260 | 30195 ft | 450 kts | 70° |
| 2026-04-15 20:09 | 63.64524 | 78.85064 | 30425 ft | 450 kts | 70° |
| 2026-04-15 20:09 | 63.65051 | 78.89565 | 30583 ft | 450 kts | 70° |